首页
METAR-TAF:

METAR-TAF

机场 :

Worthington Municipal Airport

Worthington, 明尼蘇達州, 美国

纬度: 43-39N, 经度: 095-35W, 海拔: 480米

当前天气观测

该预报发布于42分钟前的00:56 UTC
风速8节,风向南转西南
温度 21°C
湿度 60%
气压 1008 hPa
能見度: 16.1公里
天空无云

METAR: KOTG 250056Z AUTO 21008KT 10SM CLR 21/13 A2976 RMK AO2 SLP078 T02110128

时间: 20:38 (01:38 UTC)


TAF: 丢失

超过4000个机场的气象观测和天气预报(METAR&TAF报告)。

可查询的气象台以黄色和红色小点在地图上表示。

将鼠标移到小点上方,可查看气象台名称。

然后点击查看天气观测和预报。

如需切换地图:点击带黑十字的绿色按钮放大地图;点击带横线的绿色按钮缩小地图;或者点击绿色箭头查看邻近地区的地图。


METAR-TAF: